Time;durP1;ratioP1;P1;durP2;ratioP2;P2;SDS_P1;SDS_P2;PMS_P1;PMS_P2;Temp;Humidity;BMP_temperature;BMP_pressure;BME280_temperature;BME280_humidity;BME280_pressure;Samples;Min_cycle;Max_cycle;Signal;HPM_P1;HPM_P2
2022/03/09 00:00:38;;;;;;;;;72.00;53.50;;;;;9.22;41.89;101228.09;5055558;28;45624;-59
2022/03/09 00:03:03;;;;;;;;;64.00;49.25;;;;;9.31;41.83;101243.41;5049160;28;46423;-59
2022/03/09 00:05:29;;;;;;;;;70.00;48.50;;;;;9.41;41.28;101253.19;5049925;28;45350;-59
2022/03/09 00:07:54;;;;;;;;;70.25;52.50;;;;;9.42;42.45;101246.66;5056169;28;45394;-58
2022/03/09 00:10:20;;;;;;;;;75.50;55.75;;;;;9.48;42.03;101254.97;5056317;28;45301;-60
2022/03/09 00:12:45;;;;;;;;;65.25;50.25;;;;;9.45;41.98;101249.03;5054550;28;48541;-60
2022/03/09 00:15:11;;;;;;;;;71.00;54.75;;;;;9.47;42.08;101255.16;5055969;28;45322;-56
2022/03/09 00:17:37;;;;;;;;;66.50;51.50;;;;;9.44;42.11;101253.66;5054515;28;45318;-58
2022/03/09 00:20:04;;;;;;;;;68.75;52.00;;;;;9.48;42.07;101256.84;5056033;28;45168;-60
2022/03/09 00:22:29;;;;;;;;;70.75;56.00;;;;;9.48;41.71;101257.72;5054393;28;48722;-59
2022/03/09 00:24:55;;;;;;;;;65.50;51.75;;;;;9.31;42.26;101235.16;5054321;28;45515;-58
2022/03/09 00:27:20;;;;;;;;;65.00;53.50;;;;;9.13;41.76;101201.84;5056061;28;45437;-58
2022/03/09 00:29:46;;;;;;;;;65.25;48.50;;;;;9.52;41.59;101266.41;5055917;28;45392;-60
2022/03/09 00:32:13;;;;;;;;;66.50;48.75;;;;;9.52;41.80;101260.91;5055826;28;45942;-58
2022/03/09 00:34:38;;;;;;;;;65.75;48.75;;;;;9.35;41.50;101244.69;5055649;28;45492;-57
2022/03/09 00:37:04;;;;;;;;;64.00;49.25;;;;;9.47;41.27;101258.75;5054425;28;45304;-60
2022/03/09 00:39:30;;;;;;;;;65.75;51.00;;;;;9.53;41.75;101268.09;5038115;28;45183;-59
2022/03/09 00:41:55;;;;;;;;;60.25;47.75;;;;;9.52;41.86;101260.91;5055211;28;45305;-60
2022/03/09 00:44:21;;;;;;;;;69.25;52.00;;;;;9.48;41.49;101260.47;5054199;28;45255;-60
2022/03/09 00:46:46;;;;;;;;;67.00;49.75;;;;;9.54;41.56;101277.19;5055553;28;45333;-60
2022/03/09 00:49:11;;;;;;;;;63.75;50.50;;;;;9.53;41.05;101279.06;5055822;28;45290;-60
2022/03/09 00:51:37;;;;;;;;;64.75;49.00;;;;;9.50;42.14;101271.19;5055676;28;46716;-58
2022/03/09 00:54:02;;;;;;;;;62.25;48.75;;;;;9.54;41.39;101280.75;5053771;28;45338;-59
2022/03/09 00:56:28;;;;;;;;;70.75;53.75;;;;;9.46;40.80;101275.38;5055449;28;45775;-59
2022/03/09 00:58:54;;;;;;;;;64.25;48.50;;;;;9.53;41.24;101286.41;5055493;28;45510;-56
2022/03/09 01:01:19;;;;;;;;;66.50;51.00;;;;;9.51;41.30;101292.13;5055489;28;46481;-60
2022/03/09 01:03:45;;;;;;;;;61.25;48.00;;;;;9.52;41.57;101293.81;5070611;28;45325;-60
2022/03/09 01:06:10;;;;;;;;;63.25;50.25;;;;;9.48;41.63;101276.91;5055367;28;45769;-59
2022/03/09 01:08:36;;;;;;;;;65.25;48.50;;;;;9.52;40.91;101293.81;5054120;28;45714;-59
2022/03/09 01:11:01;;;;;;;;;63.75;49.25;;;;;9.47;42.03;101283.44;5054933;28;45676;-59
2022/03/09 01:13:27;;;;;;;;;63.25;52.00;;;;;9.54;41.86;101291.72;5054907;28;45599;-59
2022/03/09 01:15:53;;;;;;;;;61.50;48.25;;;;;9.55;41.67;101293.41;5055119;28;45416;-59
2022/03/09 01:18:19;;;;;;;;;60.00;46.50;;;;;9.57;42.07;101301.44;5054037;28;45392;-55
2022/03/09 01:20:44;;;;;;;;;65.25;48.25;;;;;9.43;41.72;101282.09;5054934;28;46214;-56
2022/03/09 01:23:10;;;;;;;;;60.75;46.00;;;;;9.58;41.95;101300.41;5054930;28;45380;-59
2022/03/09 01:25:35;;;;;;;;;60.75;46.25;;;;;9.56;42.30;101295.09;5054879;28;45361;-60
2022/03/09 01:28:01;;;;;;;;;58.50;46.50;;;;;9.44;41.86;101281.06;5032962;28;45199;-61
2022/03/09 01:30:27;;;;;;;;;56.50;47.50;;;;;9.56;42.77;101300.59;5048753;28;45802;-59
2022/03/09 01:32:52;;;;;;;;;60.50;47.50;;;;;9.56;43.15;101292.38;5054991;28;45381;-59
2022/03/09 01:35:18;;;;;;;;;63.75;46.50;;;;;9.40;42.77;101265.19;5070316;28;45290;-57
2022/03/09 01:37:45;;;;;;;;;56.75;44.00;;;;;9.51;42.98;101283.88;5055094;28;45251;-57
2022/03/09 01:40:11;;;;;;;;;63.00;48.75;;;;;9.47;43.38;101291.66;5053196;28;47177;-59
2022/03/09 01:42:37;;;;;;;;;53.75;44.00;;;;;9.52;44.11;101295.69;5036455;28;45577;-61
2022/03/09 01:45:03;;;;;;;;;54.75;42.50;;;;;9.57;43.88;101298.72;5053181;28;45708;-58
2022/03/09 01:47:29;;;;;;;;;53.50;42.50;;;;;9.57;44.44;101296.81;5037100;28;45296;-60
2022/03/09 01:49:54;;;;;;;;;54.50;40.00;;;;;9.45;45.35;101270.97;5053468;28;46030;-59
2022/03/09 01:52:20;;;;;;;;;49.00;40.00;;;;;9.52;45.06;101277.38;5054816;28;45339;-60
2022/03/09 01:54:45;;;;;;;;;43.75;36.50;;;;;9.56;45.56;101281.41;5052673;28;45316;-59
2022/03/09 01:57:11;;;;;;;;;50.25;37.50;;;;;9.56;46.53;101286.06;5054818;28;45326;-60
2022/03/09 01:59:36;;;;;;;;;42.00;36.50;;;;;9.57;47.41;101291.34;5053816;28;45936;-59
2022/03/09 02:02:02;;;;;;;;;41.25;36.00;;;;;9.56;47.94;101284.13;5054724;28;45242;-57
2022/03/09 02:04:27;;;;;;;;;36.50;33.00;;;;;9.58;48.59;101283.97;5054369;28;45315;-58
2022/03/09 02:06:53;;;;;;;;;41.00;32.75;;;;;9.59;48.02;101277.44;5053161;28;45323;-60
2022/03/09 02:12:17;;;;;;;;;41.40;37.00;;;;;9.58;48.17;101282.06;5041500;28;45505;-60
2022/03/09 02:14:45;;;;;;;;;50.20;35.40;;;;;9.55;48.08;101279.69;5054509;28;45410;-59
2022/03/09 02:17:14;;;;;;;;;46.00;39.40;;;;;9.26;47.89;101226.69;5054335;28;45576;-58
2022/03/09 02:19:40;;;;;;;;;42.80;34.60;;;;;9.54;47.80;101271.69;5054259;28;45419;-59
2022/03/09 02:22:10;;;;;;;;;41.80;34.00;;;;;9.55;48.90;101279.69;5054036;28;45348;-60
2022/03/09 02:24:36;;;;;;;;;46.00;35.60;;;;;9.31;48.09;101242.53;5052648;28;45361;-60
2022/03/09 02:27:01;;;;;;;;;45.75;36.75;;;;;9.52;48.86;101274.63;5054303;28;45465;-62
2022/03/09 02:29:27;;;;;;;;;32.75;30.50;;;;;9.52;49.65;101280.09;5054657;28;47706;-60
2022/03/09 02:31:52;;;;;;;;;41.00;35.00;;;;;9.50;49.86;101271.19;5072828;28;45543;-60
2022/03/09 02:34:18;;;;;;;;;39.00;36.75;;;;;9.43;49.95;101271.13;5056208;28;45149;-58
2022/03/09 02:36:43;;;;;;;;;47.25;38.00;;;;;9.51;49.65;101285.78;5056170;28;45353;-59
2022/03/09 02:39:09;;;;;;;;;48.50;35.25;;;;;9.28;49.29;101249.22;5057196;28;45640;-59
2022/03/09 02:41:35;;;;;;;;;40.50;33.25;;;;;9.50;49.80;101279.44;5057230;28;45454;-57
2022/03/09 02:44:04;;;;;;;;;40.50;32.50;;;;;9.49;50.50;101277.72;5056115;28;45392;-58
2022/03/09 02:46:29;;;;;;;;;36.20;30.00;;;;;9.47;51.47;101279.81;5056142;28;45579;-60
2022/03/09 02:48:55;;;;;;;;;43.00;34.00;;;;;9.17;51.29;101230.53;5055672;28;46608;-57
2022/03/09 02:51:21;;;;;;;;;34.75;31.50;;;;;9.26;50.94;101245.84;5055963;28;45647;-59
2022/03/09 02:53:48;;;;;;;;;34.00;32.25;;;;;9.30;51.64;101251.78;5072666;28;45379;-60
2022/03/09 02:56:14;;;;;;;;;29.80;27.40;;;;;9.51;52.62;101278.41;5057164;28;45681;-60
2022/03/09 02:58:40;;;;;;;;;34.80;28.00;;;;;9.51;52.42;101288.50;5072918;28;48357;-59
2022/03/09 03:01:07;;;;;;;;;41.25;27.25;;;;;9.50;53.49;101284.91;5036093;28;45485;-59
2022/03/09 03:03:33;;;;;;;;;32.20;26.00;;;;;9.48;52.88;101287.00;5057322;28;45443;-58
2022/03/09 03:05:58;;;;;;;;;31.75;28.25;;;;;9.50;52.31;101295.88;5055992;28;45537;-58
2022/03/09 03:08:24;;;;;;;;;32.50;29.75;;;;;9.51;54.14;101304.94;5056958;28;46399;-58
2022/03/09 03:10:49;;;;;;;;;33.50;27.50;;;;;9.49;53.58;101303.25;5039135;28;45342;-56
2022/03/09 03:13:15;;;;;;;;;40.00;26.75;;;;;9.47;53.50;101309.97;5055552;28;45404;-55
2022/03/09 03:15:40;;;;;;;;;34.00;28.25;;;;;9.45;53.96;101303.84;5057574;28;45318;-56
2022/03/09 03:18:06;;;;;;;;;36.75;32.50;;;;;9.33;54.55;101296.09;5056583;28;45307;-55
2022/03/09 03:20:31;;;;;;;;;40.75;35.25;;;;;9.39;54.10;101310.06;5055672;28;45251;-57
2022/03/09 03:22:57;;;;;;;;;28.00;28.00;;;;;9.38;54.17;101302.91;5056873;28;45271;-52
2022/03/09 03:25:22;;;;;;;;;44.50;34.25;;;;;9.36;54.17;101301.16;5055667;28;45322;-58
2022/03/09 03:27:48;;;;;;;;;34.25;31.75;;;;;9.13;54.36;101268.41;5055318;28;46824;-56
2022/03/09 03:30:13;;;;;;;;;33.75;33.00;;;;;9.34;54.63;101292.31;5056742;28;45167;-56
2022/03/09 03:32:39;;;;;;;;;30.50;29.25;;;;;9.26;54.68;101275.13;5056941;28;45436;-57
2022/03/09 03:35:05;;;;;;;;;32.75;29.25;;;;;9.35;54.72;101287.69;5057221;28;45344;-55
2022/03/09 03:37:31;;;;;;;;;34.40;32.40;;;;;9.36;54.99;101286.66;5056217;28;47361;-54
2022/03/09 03:39:56;;;;;;;;;35.00;31.00;;;;;9.35;55.17;101291.25;5071482;28;45741;-55
2022/03/09 03:42:22;;;;;;;;;32.75;25.25;;;;;9.31;54.69;101281.75;5056493;28;45386;-58
2022/03/09 03:44:47;;;;;;;;;35.25;30.75;;;;;9.31;54.77;101284.47;5055426;28;45460;-57
2022/03/09 03:47:13;;;;;;;;;31.25;29.50;;;;;9.34;55.00;101289.56;5055050;28;46278;-59
2022/03/09 03:49:39;;;;;;;;;35.50;32.75;;;;;9.16;55.51;101262.56;5056546;28;45447;-52
2022/03/09 03:52:04;;;;;;;;;31.50;28.50;;;;;9.31;56.37;101287.22;5056565;28;45353;-56
2022/03/09 03:54:30;;;;;;;;;35.25;28.50;;;;;9.30;56.44;101282.78;5055121;28;45604;-54
2022/03/09 03:56:55;;;;;;;;;40.50;36.00;;;;;9.06;55.47;101256.53;5071101;28;46729;-57
2022/03/09 03:59:21;;;;;;;;;37.50;33.00;;;;;9.15;55.26;101276.44;5056250;28;45412;-57
2022/03/09 04:01:46;;;;;;;;;35.00;31.00;;;;;9.25;55.54;101293.47;5042550;28;45334;-58
2022/03/09 04:04:12;;;;;;;;;38.00;34.00;;;;;9.25;55.33;101306.28;5050697;28;45571;-54
2022/03/09 04:06:37;;;;;;;;;39.75;34.00;;;;;9.16;55.06;101295.44;5051982;28;45496;-56
2022/03/09 04:09:03;;;;;;;;;38.75;33.00;;;;;9.24;55.10;101308.19;5055175;28;45818;-58
2022/03/09 04:11:28;;;;;;;;;39.25;31.50;;;;;9.15;55.97;101295.63;5071480;27;45787;-56
2022/03/09 04:13:54;;;;;;;;;45.25;37.00;;;;;9.21;55.64;101308.56;5056087;28;45523;-53
2022/03/09 04:16:20;;;;;;;;;43.50;36.75;;;;;9.19;56.10;101313.38;5055591;28;45599;-56
2022/03/09 04:18:45;;;;;;;;;40.75;33.25;;;;;9.14;56.22;101302.13;5055830;28;45392;-58
2022/03/09 04:21:11;;;;;;;;;37.75;36.00;;;;;9.15;55.27;101304.69;5056051;28;45400;-58
2022/03/09 04:23:36;;;;;;;;;41.25;36.50;;;;;9.12;55.98;101310.53;5056021;28;45495;-55
2022/03/09 04:26:02;;;;;;;;;40.00;33.00;;;;;9.13;55.75;101308.66;5055262;28;45471;-56
2022/03/09 04:28:28;;;;;;;;;39.20;33.60;;;;;9.12;55.52;101310.53;5055533;28;45523;-56
2022/03/09 04:30:53;;;;;;;;;43.50;34.25;;;;;9.02;55.84;101283.44;5055434;28;45375;-57
2022/03/09 04:33:19;;;;;;;;;41.25;36.00;;;;;9.08;55.74;101307.31;5055957;28;45364;-58
2022/03/09 04:35:44;;;;;;;;;51.25;40.75;;;;;9.06;55.61;101312.16;5055540;28;45377;-56
2022/03/09 04:38:10;;;;;;;;;52.25;41.00;;;;;8.96;54.75;101295.13;5055721;28;45722;-57
2022/03/09 04:40:35;;;;;;;;;51.00;41.00;;;;;9.00;54.97;101301.94;5055659;28;45270;-57
2022/03/09 04:43:01;;;;;;;;;60.00;45.50;;;;;8.90;54.41;101290.41;5055465;28;45355;-55
2022/03/09 04:45:26;;;;;;;;;56.25;46.75;;;;;8.93;54.43;101295.53;5054090;28;45402;-57
2022/03/09 04:47:52;;;;;;;;;51.25;41.25;;;;;8.66;54.07;101265.84;5053651;28;45365;-55
2022/03/09 04:50:17;;;;;;;;;60.00;46.00;;;;;8.92;54.17;101313.00;5055625;28;45287;-55
2022/03/09 04:52:43;;;;;;;;;55.25;43.25;;;;;8.90;54.11;101312.31;5054413;28;45312;-58
2022/03/09 04:55:08;;;;;;;;;57.50;46.50;;;;;8.89;53.34;101319.69;5054926;28;46827;-57
2022/03/09 04:57:37;;;;;;;;;61.50;46.25;;;;;8.85;53.38;101321.09;5055142;28;45330;-56
2022/03/09 05:00:08;;;;;;;;;62.75;49.25;;;;;8.61;53.38;101286.59;5055387;28;45583;-56
2022/03/09 05:02:34;;;;;;;;;61.25;47.50;;;;;8.76;52.57;101322.22;5055131;27;45687;-55
2022/03/09 05:04:59;;;;;;;;;56.50;47.50;;;;;8.75;52.66;101329.56;5055330;28;45449;-58
2022/03/09 05:07:25;;;;;;;;;64.00;48.25;;;;;8.74;52.43;101335.22;5055116;28;45564;-58
2022/03/09 05:09:51;;;;;;;;;66.50;51.50;;;;;8.71;52.54;101339.19;5055693;28;45441;-58
2022/03/09 05:12:16;;;;;;;;;62.25;48.25;;;;;8.68;52.42;101334.06;5055276;28;45431;-57
2022/03/09 05:14:42;;;;;;;;;66.25;51.00;;;;;8.59;52.11;101329.72;5055391;28;46264;-52
2022/03/09 05:17:07;;;;;;;;;66.75;51.75;;;;;8.60;52.55;101336.91;5054859;28;45395;-55
2022/03/09 05:19:33;;;;;;;;;65.75;50.50;;;;;8.57;52.60;101339.97;5055401;28;45326;-60
2022/03/09 05:21:58;;;;;;;;;66.00;50.50;;;;;8.52;52.38;101344.13;5055498;28;45375;-55
2022/03/09 05:24:24;;;;;;;;;53.75;43.75;;;;;8.45;52.34;101342.28;5070675;28;46828;-56
2022/03/09 05:26:49;;;;;;;;;65.50;51.00;;;;;8.40;52.35;101340.09;5055081;28;45362;-54
2022/03/09 05:29:15;;;;;;;;;64.75;48.75;;;;;8.38;52.34;101343.00;5070400;28;45382;-59
2022/03/09 05:31:44;;;;;;;;;64.75;49.00;;;;;7.84;53.07;101264.59;5055463;28;45784;-58
2022/03/09 05:34:10;;;;;;;;;57.00;45.00;;;;;8.32;53.06;101353.84;5054926;27;46018;-57
2022/03/09 05:36:36;;;;;;;;;61.00;47.00;;;;;8.33;52.86;101361.00;5054831;28;45476;-50
2022/03/09 05:39:02;;;;;;;;;53.25;43.50;;;;;8.19;53.20;101344.34;5055163;28;45342;-57
2022/03/09 05:41:28;;;;;;;;;62.25;48.50;;;;;8.27;53.29;101359.84;5037490;28;45449;-57
2022/03/09 05:43:53;;;;;;;;;56.75;47.00;;;;;8.14;53.71;101368.66;5069837;27;48333;-53
2022/03/09 05:46:19;;;;;;;;;57.25;45.75;;;;;8.00;54.10;101362.91;5055030;28;45503;-59
2022/03/09 05:48:45;;;;;;;;;57.00;46.25;;;;;7.71;54.30;101341.72;5036864;28;45259;-58
2022/03/09 05:51:11;;;;;;;;;59.50;46.25;;;;;7.90;54.61;101377.84;5054218;28;45212;-56
2022/03/09 05:53:36;;;;;;;;;51.50;44.75;;;;;7.84;54.25;101385.72;5036773;28;45923;-57
2022/03/09 05:56:02;;;;;;;;;59.00;45.50;;;;;7.88;54.72;101397.16;5054446;28;45294;-56
2022/03/09 05:58:28;;;;;;;;;61.50;46.00;;;;;7.84;55.37;101395.78;5054616;28;45354;-58
2022/03/09 06:00:53;;;;;;;;;56.75;44.75;;;;;7.83;54.73;101391.34;5054918;28;45378;-54
2022/03/09 06:03:19;;;;;;;;;52.50;43.75;;;;;7.82;54.97;101392.41;5054717;28;45424;-57
2022/03/09 06:05:44;;;;;;;;;56.00;44.75;;;;;7.70;55.12;101375.53;5073916;27;45425;-57
2022/03/09 06:08:10;;;;;;;;;52.75;43.00;;;;;7.82;54.72;101392.41;5056932;28;45526;-58
2022/03/09 06:10:57;;;;;;;;;60.00;46.25;;;;;7.80;54.86;101394.47;5058126;28;45421;-55
2022/03/09 06:13:23;;;;;;;;;48.00;41.00;;;;;7.79;55.27;101392.75;5057697;28;45402;-56
2022/03/09 06:15:49;;;;;;;;;63.00;47.00;;;;;7.67;54.91;101395.00;5058168;28;45369;-53
2022/03/09 06:18:26;;;;;;;;;53.20;44.80;;;;;7.65;55.27;101388.88;5057889;28;45391;-58
2022/03/09 06:20:51;;;;;;;;;54.25;46.00;;;;;7.59;55.38;101387.72;5058629;28;45520;-57
2022/03/09 06:23:18;;;;;;;;;64.75;46.50;;;;;7.35;55.78;101358.59;5057676;28;46800;-53
2022/03/09 06:25:43;;;;;;;;;58.80;43.20;;;;;7.53;56.28;101385.69;5039766;28;45332;-55
2022/03/09 06:28:09;;;;;;;;;57.25;44.25;;;;;7.66;55.76;101398.78;5057734;28;45373;-58
2022/03/09 06:30:34;;;;;;;;;45.50;41.75;;;;;7.71;55.85;101393.63;5057894;28;45494;-58
2022/03/09 06:33:00;;;;;;;;;56.50;41.75;;;;;7.40;56.28;101367.97;5057680;28;46071;-56
2022/03/09 06:35:26;;;;;;;;;53.75;41.50;;;;;7.60;56.47;101408.53;5073306;28;45392;-54
2022/03/09 06:37:51;;;;;;;;;52.00;43.25;;;;;7.58;57.03;101405.13;5057544;28;45587;-57
2022/03/09 06:40:17;;;;;;;;;56.25;44.25;;;;;7.44;56.81;101371.19;5058222;28;45311;-58
2022/03/09 06:42:42;;;;;;;;;51.00;45.00;;;;;7.44;56.52;101373.94;5057289;28;46039;-57
2022/03/09 06:45:08;;;;;;;;;45.00;38.50;;;;;7.59;56.72;101398.63;5056476;28;45342;-54
2022/03/09 06:47:38;;;;;;;;;54.00;43.00;;;;;7.67;56.65;101417.72;5056230;28;45467;-55
2022/03/09 06:50:05;;;;;;;;;57.50;46.00;;;;;7.72;56.60;101418.06;5026326;28;45426;-57
2022/03/09 06:52:30;;;;;;;;;57.00;42.50;;;;;7.77;56.46;101413.94;5036216;28;46128;-59
2022/03/09 06:54:56;;;;;;;;;48.50;41.25;;;;;7.79;56.62;101414.63;5034250;28;45512;-55
2022/03/09 06:57:22;;;;;;;;;59.00;45.00;;;;;7.77;56.70;101413.94;5037547;28;45520;-54
2022/03/09 06:59:49;;;;;;;;;66.75;53.25;;;;;7.71;57.47;101413.63;5053356;28;45353;-59
2022/03/09 07:02:14;;;;;;;;;78.50;58.50;;;;;7.65;56.56;101414.34;5037162;28;45653;-59
2022/03/09 07:04:40;;;;;;;;;67.00;52.75;;;;;7.66;56.98;101410.56;5036115;28;45440;-59
2022/03/09 07:07:05;;;;;;;;;66.75;51.00;;;;;7.69;56.91;101415.66;5037364;28;45318;-59
2022/03/09 07:09:31;;;;;;;;;62.75;47.25;;;;;7.76;56.58;101429.50;5009091;27;45254;-58
2022/03/09 07:11:57;;;;;;;;;58.75;48.25;;;;;7.58;57.20;101388.75;5022448;28;45898;-58
2022/03/09 07:14:23;;;;;;;;;56.80;41.80;;;;;7.81;57.28;101432.56;5036832;28;45508;-56
2022/03/09 07:16:48;;;;;;;;;47.75;41.75;;;;;7.79;57.01;101431.03;5036495;28;45469;-59
2022/03/09 07:19:14;;;;;;;;;55.25;44.00;;;;;7.89;56.96;101430.81;5037404;28;45243;-60
2022/03/09 07:21:40;;;;;;;;;59.75;45.25;;;;;7.98;56.56;101446.13;5037123;28;46307;-59
2022/03/09 07:24:05;;;;;;;;;55.25;44.25;;;;;7.80;56.60;101411.69;5036948;28;45423;-56
2022/03/09 07:26:33;;;;;;;;;61.75;45.25;;;;;8.03;57.02;101449.19;5052389;28;45468;-59
2022/03/09 07:28:58;;;;;;;;;61.75;47.50;;;;;7.98;56.82;101449.75;5046517;28;45284;-58
2022/03/09 07:31:24;;;;;;;;;62.00;49.00;;;;;7.97;57.45;101455.38;5055742;28;46271;-56
2022/03/09 07:33:49;;;;;;;;;59.75;46.00;;;;;7.86;57.30;101440.22;5056970;28;45360;-61
2022/03/09 07:36:15;;;;;;;;;63.00;45.00;;;;;8.02;57.12;101458.44;5055423;28;45283;-60
2022/03/09 07:38:41;;;;;;;;;60.00;48.25;;;;;8.11;57.32;101462.00;5057065;28;45227;-56
2022/03/09 07:41:06;;;;;;;;;56.25;42.50;;;;;8.17;57.10;101452.22;5057081;28;45618;-59
2022/03/09 07:43:32;;;;;;;;;47.25;41.50;;;;;8.22;57.22;101458.84;5055573;28;45229;-59
2022/03/09 07:45:58;;;;;;;;;51.20;42.00;;;;;8.29;57.12;101467.19;5057059;28;45428;-59
2022/03/09 07:48:23;;;;;;;;;55.25;42.00;;;;;8.19;56.98;101434.59;5056769;28;45312;-60
2022/03/09 07:50:49;;;;;;;;;62.75;44.50;;;;;8.39;57.37;101465.06;5044373;28;46386;-57
2022/03/09 07:53:14;;;;;;;;;58.25;45.50;;;;;8.42;57.20;101463.84;5053769;28;45364;-57
2022/03/09 07:55:40;;;;;;;;;56.00;43.25;;;;;8.44;57.52;101470.03;5055300;28;45436;-58
2022/03/09 07:58:06;;;;;;;;;49.25;41.25;;;;;8.52;57.70;101482.81;5056448;28;45466;-59
2022/03/09 08:00:31;;;;;;;;;56.00;43.75;;;;;8.50;57.77;101472.00;5054907;28;46207;-58
2022/03/09 08:02:57;;;;;;;;;57.75;42.50;;;;;8.58;57.15;101484.00;5054973;28;45473;-59
2022/03/09 08:05:22;;;;;;;;;46.00;41.25;;;;;8.35;57.30;101441.00;5056527;28;45381;-60
2022/03/09 08:07:48;;;;;;;;;56.00;43.50;;;;;8.55;57.85;101477.00;5072172;28;45418;-59
2022/03/09 08:10:14;;;;;;;;;37.75;34.50;;;;;8.52;57.91;101472.75;5056207;28;46498;-59
2022/03/09 08:12:40;;;;;;;;;45.50;39.75;;;;;8.42;57.45;101452.91;5056407;28;45408;-58
2022/03/09 08:15:06;;;;;;;;;48.00;39.80;;;;;8.59;58.26;101481.06;5071709;28;45338;-57
2022/03/09 08:17:32;;;;;;;;;49.75;40.50;;;;;8.72;57.92;101483.22;5056115;28;45633;-60
2022/03/09 08:19:57;;;;;;;;;57.25;41.50;;;;;8.84;57.34;101482.78;5055625;28;46122;-61
2022/03/09 08:22:23;;;;;;;;;44.50;39.25;;;;;8.84;57.78;101471.81;5054795;28;45392;-54
2022/03/09 08:24:49;;;;;;;;;53.00;43.50;;;;;9.02;57.11;101487.97;5071792;28;45428;-60
2022/03/09 08:27:14;;;;;;;;;46.25;39.25;;;;;9.06;57.53;101472.84;5055931;28;45583;-60
2022/03/09 08:29:40;;;;;;;;;47.50;42.25;;;;;9.16;57.40;101497.25;5071327;28;46199;-62
2022/03/09 08:32:06;;;;;;;;;47.75;39.25;;;;;9.20;56.67;101495.84;5054168;28;45436;-60
2022/03/09 08:34:31;;;;;;;;;49.50;39.75;;;;;9.04;57.23;101451.16;5055099;28;45505;-59
2022/03/09 08:36:57;;;;;;;;;45.50;39.00;;;;;9.24;57.88;101494.47;5054406;28;45626;-61
2022/03/09 08:39:22;;;;;;;;;46.75;40.00;;;;;9.14;57.08;101471.94;5055041;28;46294;-59
2022/03/09 08:41:48;;;;;;;;;48.25;39.50;;;;;9.35;57.25;101495.91;5054304;28;45384;-61
2022/03/09 08:44:13;;;;;;;;;44.25;38.50;;;;;9.39;57.17;101491.72;5055235;28;45500;-58
2022/03/09 08:46:39;;;;;;;;;45.60;39.60;;;;;9.39;56.82;101491.72;5054395;28;45451;-60
2022/03/09 08:49:08;;;;;;;;;51.50;39.25;;;;;9.49;57.07;101506.03;5054962;28;46661;-59
2022/03/09 08:51:33;;;;;;;;;40.40;35.80;;;;;9.47;57.30;101494.41;5055325;28;45389;-55
2022/03/09 08:53:59;;;;;;;;;35.00;32.25;;;;;9.54;58.31;101504.63;5055486;28;45356;-58
2022/03/09 08:56:27;;;;;;;;;34.50;32.75;;;;;9.55;58.27;101493.47;5055319;27;45437;-60
2022/03/09 08:58:53;;;;;;;;;38.40;35.20;;;;;9.51;58.23;101478.44;5031770;28;47035;-60
2022/03/09 09:01:18;;;;;;;;;33.75;31.75;;;;;9.63;58.14;101495.28;5055454;28;45420;-61
2022/03/09 09:03:44;;;;;;;;;35.75;31.50;;;;;9.62;58.80;101491.69;5056042;28;45395;-63
2022/03/09 09:06:10;;;;;;;;;38.00;36.25;;;;;9.65;58.85;101495.94;5049610;28;45429;-58
2022/03/09 09:08:35;;;;;;;;;31.75;28.50;;;;;9.67;59.36;101487.53;5052396;28;45581;-58
2022/03/09 09:11:01;;;;;;;;;37.50;35.00;;;;;9.64;59.28;101491.50;5054607;28;45490;-52
2022/03/09 09:13:26;;;;;;;;;32.75;32.25;;;;;9.73;59.86;101498.59;5070433;28;45337;-54
2022/03/09 09:15:52;;;;;;;;;31.00;31.00;;;;;9.77;60.19;101504.56;5053768;28;45299;-61
2022/03/09 09:18:18;;;;;;;;;38.75;34.25;;;;;9.83;60.04;101497.47;5028362;27;46509;-57
2022/03/09 09:20:44;;;;;;;;;29.50;27.00;;;;;9.89;60.58;101489.31;5051013;28;45528;-57
2022/03/09 09:23:09;;;;;;;;;32.00;25.25;;;;;9.92;60.83;101488.09;5055438;28;45626;-56
2022/03/09 09:25:36;;;;;;;;;26.50;22.00;;;;;10.00;60.31;101490.78;5054790;28;45275;-56
2022/03/09 09:28:01;;;;;;;;;32.00;28.20;;;;;9.94;60.68;101474.22;5054894;28;46136;-57
2022/03/09 09:30:27;;;;;;;;;24.75;23.00;;;;;10.09;60.29;101483.28;5054604;28;45475;-57
2022/03/09 09:32:53;;;;;;;;;22.75;19.00;;;;;10.10;60.90;101486.88;5053853;28;45782;-55
2022/03/09 09:35:18;;;;;;;;;25.00;24.00;;;;;10.13;61.33;101481.84;5053859;28;45607;-54
2022/03/09 09:37:45;;;;;;;;;22.50;21.00;;;;;10.15;61.16;101485.25;5054600;28;45585;-58
2022/03/09 09:40:11;;;;;;;;;23.40;18.80;;;;;9.96;61.78;101430.97;5058509;28;45239;-59
2022/03/09 09:42:37;;;;;;;;;18.60;14.20;;;;;10.43;61.00;101470.88;5057811;28;45692;-59
2022/03/09 09:45:03;;;;;;;;;26.75;19.75;;;;;10.32;60.54;101424.69;5056204;28;45437;-62
2022/03/09 09:47:29;;;;;;;;;18.00;17.00;;;;;10.57;60.44;101460.03;5058331;28;46992;-60
2022/03/09 09:49:56;;;;;;;;;17.80;17.80;;;;;10.62;59.88;101456.72;5057149;28;45695;-61
2022/03/09 09:52:27;;;;;;;;;17.80;15.20;;;;;10.74;60.08;101468.88;5057575;28;45409;-57
2022/03/09 09:54:54;;;;;;;;;22.20;18.00;;;;;10.88;60.26;101463.53;5057283;28;45380;-60
2022/03/09 09:57:20;;;;;;;;;13.20;13.20;;;;;10.78;60.25;101439.13;5001001;27;46717;-60
2022/03/09 09:59:46;;;;;;;;;16.50;15.00;;;;;11.02;59.99;101457.09;5046275;28;45512;-59
2022/03/09 10:02:11;;;;;;;;;17.00;16.75;;;;;11.15;59.88;101450.84;5027092;28;45385;-60
2022/03/09 10:04:42;;;;;;;;;20.00;17.25;;;;;11.20;59.67;101447.53;5057224;28;45680;-61
2022/03/09 10:07:08;;;;;;;;;16.60;14.80;;;;;11.30;58.78;101448.03;5058061;28;46205;-62
2022/03/09 10:09:35;;;;;;;;;16.25;15.00;;;;;11.35;59.22;101453.78;5038709;28;45383;-58
2022/03/09 10:12:00;;;;;;;;;14.00;13.00;;;;;11.49;58.75;101449.22;5056972;28;45492;-56
2022/03/09 10:14:49;;;;;;;;;15.75;13.75;;;;;11.53;58.50;101450.50;5057033;28;45315;-59
2022/03/09 10:17:36;;;;;;;;;12.00;12.00;;;;;11.66;58.80;101448.91;5059227;27;45700;-59
2022/03/09 10:20:09;;;;;;;;;15.00;12.60;;;;;11.47;58.32;101415.59;5058235;28;45271;-57
2022/03/09 10:22:41;;;;;;;;;20.20;15.60;;;;;11.47;58.46;101410.09;5055404;28;45421;-60
2022/03/09 10:25:09;;;;;;;;;16.80;15.80;;;;;11.59;57.80;101409.53;5040640;28;45425;-60
2022/03/09 10:27:38;;;;;;;;;17.80;14.60;;;;;11.86;58.00;101450.94;5058140;28;46298;-61
2022/03/09 10:30:07;;;;;;;;;14.00;14.00;;;;;11.95;57.71;101448.84;5057789;28;45290;-60
2022/03/09 10:32:48;;;;;;;;;15.40;13.40;;;;;11.84;57.05;101411.78;5056769;28;45441;-59
2022/03/09 10:35:15;;;;;;;;;17.20;14.40;;;;;12.06;57.60;101438.16;5037879;28;45752;-56
2022/03/09 10:37:41;;;;;;;;;13.40;13.40;;;;;12.08;56.39;101426.94;5053293;28;45446;-53
2022/03/09 10:40:16;;;;;;;;;16.20;15.60;;;;;12.09;56.68;101405.75;5053133;28;45342;-58
2022/03/09 10:42:41;;;;;;;;;9.40;9.40;;;;;12.42;55.80;101438.06;5037863;28;45397;-60
2022/03/09 10:45:07;;;;;;;;;8.50;8.25;;;;;12.46;56.04;101418.19;5050548;28;45459;-59
2022/03/09 10:47:38;;;;;;;;;14.40;11.80;;;;;12.64;55.10;101429.66;5056059;28;46538;-59
2022/03/09 10:50:33;;;;;;;;;11.20;10.00;;;;;12.77;54.90;101435.19;5056614;28;45400;-61
2022/03/09 10:53:00;;;;;;;;;11.40;9.80;;;;;12.82;54.60;101434.53;5052163;28;45426;-60
2022/03/09 10:55:31;;;;;;;;;10.80;9.40;;;;;12.82;54.99;101429.88;5056933;28;45515;-60
2022/03/09 10:58:10;;;;;;;;;8.40;8.00;;;;;12.91;54.51;101430.50;5055534;28;45794;-60
2022/03/09 11:01:02;;;;;;;;;8.80;8.80;;;;;12.96;54.20;101427.97;5056811;28;45397;-61
2022/03/09 11:03:28;;;;;;;;;9.80;9.80;;;;;13.10;53.54;101445.38;5050332;28;45400;-57
2022/03/09 11:06:00;;;;;;;;;13.00;12.00;;;;;12.63;53.55;101357.19;5038941;28;45344;-56
2022/03/09 11:08:26;;;;;;;;;16.00;12.80;;;;;13.19;53.21;101434.13;5056642;28;46287;-59
2022/03/09 11:10:54;;;;;;;;;15.00;10.60;;;;;13.23;53.98;101439.00;5055738;28;45373;-59
2022/03/09 11:13:21;;;;;;;;;15.00;12.00;;;;;13.23;53.22;101419.72;5055563;28;45293;-59
2022/03/09 11:15:47;;;;;;;;;14.80;10.40;;;;;13.44;53.23;101445.34;5057035;28;45650;-61